Time;durP1;ratioP1;P1;durP2;ratioP2;P2;SDS_P1;SDS_P2;PMS_P1;PMS_P2;Temp;Humidity;BMP_temperature;BMP_pressure;BME280_temperature;BME280_humidity;BME280_pressure;Samples;Min_cycle;Max_cycle;Signal;HPM_P1;HPM_P2
2023/01/20 00:01:41;;;;;;;;;;;;;;;;;;5046421;28;19924;-69
2023/01/20 00:04:07;;;;;;;;;;;;;;;;;;5037023;28;19931;-68
2023/01/20 00:06:33;;;;;;;;;;;;;;;;;;5031813;28;20445;-67
2023/01/20 00:08:59;;;;;;;;;;;;;;;;;;5026941;28;20336;-67
2023/01/20 00:11:25;;;;;;;;;;;;;;;;;;5033779;28;19920;-67
2023/01/20 00:13:51;;;;;;;;;;;;;;;;;;5024348;28;19934;-69
2023/01/20 00:16:17;;;;;;;;;;;;;;;;;;5002176;28;20552;-67
2023/01/20 00:18:42;;;;;;;;;;;;;;;;;;5013810;28;19924;-69
2023/01/20 00:21:08;;;;;;;;;;;;;;;;;;5001806;28;19956;-68
2023/01/20 00:23:34;;;;;;;;;;;;;;;;;;5010317;28;20566;-68
2023/01/20 00:26:00;;;;;;;;;;;;;;;;;;5012450;28;20446;-68
2023/01/20 00:28:26;;;;;;;;;;;;;;;;;;5033222;28;19924;-65
2023/01/20 00:30:52;;;;;;;;;;;;;;;;;;5007484;28;19927;-67
2023/01/20 00:33:18;;;;;;;;;;;;;;;;;;5045520;28;19931;-68
2023/01/20 00:35:44;;;;;;;;;;;;;;;;;;5050940;28;19920;-67
2023/01/20 00:38:09;;;;;;;;;;;;;;;;;;5055033;28;19928;-66
2023/01/20 00:40:35;;;;;;;;;;;;;;;;;;5055534;28;19931;-66
2023/01/20 00:43:01;;;;;;;;;;;;;;;;;;5052169;28;19931;-67
2023/01/20 00:45:27;;;;;;;;;;;;;;;;;;5056848;28;20342;-66
2023/01/20 00:47:53;;;;;;;;;;;;;;;;;;5067209;28;19927;-66
2023/01/20 00:50:19;;;;;;;;;;;;;;;;;;5047523;28;19932;-67
2023/01/20 00:52:45;;;;;;;;;;;;;;;;;;5059698;28;20404;-68
2023/01/20 00:55:10;;;;;;;;;;;;;;;;;;5057155;28;19946;-66
2023/01/20 00:57:36;;;;;;;;;;;;;;;;;;5061605;28;19963;-67
2023/01/20 01:00:02;;;;;;;;;;;;;;;;;;5063629;28;20389;-67
2023/01/20 01:02:28;;;;;;;;;;;;;;;;;;5058572;28;20084;-67
2023/01/20 01:04:54;;;;;;;;;;;;;;;;;;5030388;28;20621;-67
2023/01/20 01:07:20;;;;;;;;;;;;;;;;;;5034052;28;20271;-66
2023/01/20 01:09:46;;;;;;;;;;;;;;;;;;5036021;28;19955;-68
2023/01/20 01:12:11;;;;;;;;;;;;;;;;;;5014709;28;20569;-67
2023/01/20 01:14:37;;;;;;;;;;;;;;;;;;5041394;28;20393;-67
2023/01/20 01:17:03;;;;;;;;;;;;;;;;;;5041049;28;20423;-65
2023/01/20 01:19:29;;;;;;;;;;;;;;;;;;5033596;28;19967;-66
2023/01/20 01:21:55;;;;;;;;;;;;;;;;;;5029819;28;19924;-64
2023/01/20 01:24:21;;;;;;;;;;;;;;;;;;5038779;28;19951;-68
2023/01/20 01:26:47;;;;;;;;;;;;;;;;;;5024953;28;20382;-67
2023/01/20 01:29:12;;;;;;;;;;;;;;;;;;5030137;28;19925;-66
2023/01/20 01:31:38;;;;;;;;;;;;;;;;;;5043673;28;19936;-68
2023/01/20 01:34:04;;;;;;;;;;;;;;;;;;5041210;28;19978;-68
2023/01/20 01:36:46;;;;;;;;;;;;;;;;;;4995393;28;20114;-65
2023/01/20 01:39:12;;;;;;;;;;;;;;;;;;5033165;28;19928;-66
2023/01/20 01:41:38;;;;;;;;;;;;;;;;;;5035918;28;19927;-66
2023/01/20 01:44:03;;;;;;;;;;;;;;;;;;5045731;28;19924;-66
2023/01/20 01:46:29;;;;;;;;;;;;;;;;;;5051627;28;20011;-65
2023/01/20 01:48:55;;;;;;;;;;;;;;;;;;5042278;28;19928;-69
2023/01/20 01:51:21;;;;;;;;;;;;;;;;;;5055388;28;20409;-67
2023/01/20 01:53:47;;;;;;;;;;;;;;;;;;5053537;28;19930;-67
2023/01/20 01:56:13;;;;;;;;;;;;;;;;;;5049406;28;19978;-66
2023/01/20 01:58:39;;;;;;;;;;;;;;;;;;5047392;28;20411;-66
2023/01/20 02:01:04;;;;;;;;;;;;;;;;;;5037501;28;19948;-69
2023/01/20 02:03:30;;;;;;;;;;;;;;;;;;5044193;28;19982;-66
2023/01/20 02:05:56;;;;;;;;;;;;;;;;;;5031067;28;19925;-68
2023/01/20 02:08:22;;;;;;;;;;;;;;;;;;5041155;28;20852;-68
2023/01/20 02:10:48;;;;;;;;;;;;;;;;;;5040480;28;19920;-69
2023/01/20 02:13:14;;;;;;;;;;;;;;;;;;5024941;28;20244;-68
2023/01/20 02:15:40;;;;;;;;;;;;;;;;;;5032707;28;19943;-69
2023/01/20 02:18:05;;;;;;;;;;;;;;;;;;5040067;28;20701;-68
2023/01/20 02:20:33;;;;;;;;;;;;;;;;;;5036888;28;19931;-68
2023/01/20 02:22:59;;;;;;;;;;;;;;;;;;5036189;28;20344;-66
2023/01/20 02:25:25;;;;;;;;;;;;;;;;;;5036017;28;19924;-67
2023/01/20 02:27:50;;;;;;;;;;;;;;;;;;5039540;28;20391;-66
2023/01/20 02:30:16;;;;;;;;;;;;;;;;;;5016883;28;20058;-69
2023/01/20 02:32:42;;;;;;;;;;;;;;;;;;5035692;28;20325;-66
2023/01/20 02:35:08;;;;;;;;;;;;;;;;;;5042257;28;19982;-69
2023/01/20 02:37:34;;;;;;;;;;;;;;;;;;5036517;28;20401;-66
2023/01/20 02:40:00;;;;;;;;;;;;;;;;;;5043159;28;19930;-68
2023/01/20 02:42:26;;;;;;;;;;;;;;;;;;5038516;28;19963;-66
2023/01/20 02:44:51;;;;;;;;;;;;;;;;;;5034892;28;20409;-67
2023/01/20 02:47:17;;;;;;;;;;;;;;;;;;5039736;28;21753;-69
2023/01/20 02:49:43;;;;;;;;;;;;;;;;;;5043741;28;19931;-67
2023/01/20 02:52:09;;;;;;;;;;;;;;;;;;5040656;28;19947;-68
2023/01/20 02:54:35;;;;;;;;;;;;;;;;;;5048163;28;20377;-69
2023/01/20 02:57:01;;;;;;;;;;;;;;;;;;5044103;28;20354;-65
2023/01/20 02:59:27;;;;;;;;;;;;;;;;;;5048744;28;20592;-69
2023/01/20 03:01:52;;;;;;;;;;;;;;;;;;5035148;28;19948;-68
2023/01/20 03:04:18;;;;;;;;;;;;;;;;;;5033816;28;19951;-67
2023/01/20 03:06:44;;;;;;;;;;;;;;;;;;5036450;28;21131;-68
2023/01/20 03:09:10;;;;;;;;;;;;;;;;;;5029840;28;20495;-66
2023/01/20 03:11:36;;;;;;;;;;;;;;;;;;5039985;28;20667;-69
2023/01/20 03:14:02;;;;;;;;;;;;;;;;;;5040677;28;19974;-68
2023/01/20 03:16:27;;;;;;;;;;;;;;;;;;5030678;28;19931;-67
2023/01/20 03:18:53;;;;;;;;;;;;;;;;;;5036002;28;20766;-69
2023/01/20 03:21:19;;;;;;;;;;;;;;;;;;5028300;28;19925;-67
2023/01/20 03:23:45;;;;;;;;;;;;;;;;;;5034901;28;19924;-67
2023/01/20 03:26:11;;;;;;;;;;;;;;;;;;5032230;28;19963;-67
2023/01/20 03:28:37;;;;;;;;;;;;;;;;;;5027293;28;19924;-68
2023/01/20 03:31:03;;;;;;;;;;;;;;;;;;5050278;28;20760;-68
2023/01/20 03:33:28;;;;;;;;;;;;;;;;;;5033599;28;19937;-65
2023/01/20 03:35:54;;;;;;;;;;;;;;;;;;5057249;28;19931;-65
2023/01/20 03:38:20;;;;;;;;;;;;;;;;;;5055451;28;20492;-67
2023/01/20 03:40:46;;;;;;;;;;;;;;;;;;5050092;28;20131;-67
2023/01/20 03:43:12;;;;;;;;;;;;;;;;;;5047221;28;19932;-66
2023/01/20 03:45:38;;;;;;;;;;;;;;;;;;5042299;28;20023;-68
2023/01/20 03:48:04;;;;;;;;;;;;;;;;;;5053454;28;21706;-66
2023/01/20 03:50:30;;;;;;;;;;;;;;;;;;5045497;28;19924;-66
2023/01/20 03:52:55;;;;;;;;;;;;;;;;;;5042322;28;19931;-67
2023/01/20 03:55:21;;;;;;;;;;;;;;;;;;5045248;28;19928;-68
2023/01/20 03:57:47;;;;;;;;;;;;;;;;;;5045236;28;19958;-67
2023/01/20 04:00:13;;;;;;;;;;;;;;;;;;5042110;28;20171;-66
2023/01/20 04:02:39;;;;;;;;;;;;;;;;;;5025495;28;20038;-66
2023/01/20 04:05:05;;;;;;;;;;;;;;;;;;5024704;28;20480;-67
2023/01/20 04:07:30;;;;;;;;;;;;;;;;;;5025147;28;19920;-66
2023/01/20 04:09:56;;;;;;;;;;;;;;;;;;5036929;28;19924;-68
2023/01/20 04:12:22;;;;;;;;;;;;;;;;;;5045078;28;20067;-68
2023/01/20 04:14:48;;;;;;;;;;;;;;;;;;5036862;28;19928;-69
2023/01/20 04:17:14;;;;;;;;;;;;;;;;;;5031610;28;20302;-66
2023/01/20 04:19:40;;;;;;;;;;;;;;;;;;5029212;28;21360;-69
2023/01/20 04:22:06;;;;;;;;;;;;;;;;;;5036829;28;19920;-66
2023/01/20 04:24:31;;;;;;;;;;;;;;;;;;5030580;28;19924;-68
2023/01/20 04:26:57;;;;;;;;;;;;;;;;;;5022558;28;19935;-69
2023/01/20 04:29:23;;;;;;;;;;;;;;;;;;5033224;28;20533;-66
2023/01/20 04:31:49;;;;;;;;;;;;;;;;;;5039052;28;19928;-66
2023/01/20 04:34:15;;;;;;;;;;;;;;;;;;5044148;28;20025;-67
2023/01/20 04:36:41;;;;;;;;;;;;;;;;;;5045077;28;21399;-66
2023/01/20 04:39:07;;;;;;;;;;;;;;;;;;5040398;28;19924;-67
2023/01/20 04:41:33;;;;;;;;;;;;;;;;;;5046010;28;20537;-69
2023/01/20 04:43:58;;;;;;;;;;;;;;;;;;5056105;28;20449;-66
2023/01/20 04:46:24;;;;;;;;;;;;;;;;;;5036372;28;19932;-65
2023/01/20 04:48:50;;;;;;;;;;;;;;;;;;5039400;28;19923;-67
2023/01/20 04:51:16;;;;;;;;;;;;;;;;;;5036945;28;19931;-65
2023/01/20 04:53:42;;;;;;;;;;;;;;;;;;5032376;28;19966;-68
2023/01/20 04:56:08;;;;;;;;;;;;;;;;;;5027430;28;24678;-66
2023/01/20 04:58:34;;;;;;;;;;;;;;;;;;5033580;28;19924;-68
2023/01/20 05:00:59;;;;;;;;;;;;;;;;;;5046706;28;19959;-66
2023/01/20 05:03:25;;;;;;;;;;;;;;;;;;5052675;28;19946;-65
2023/01/20 05:05:52;;;;;;;;;;;;;;;;;;5049118;28;19931;-68
2023/01/20 05:08:18;;;;;;;;;;;;;;;;;;5055990;28;20562;-66
2023/01/20 05:10:44;;;;;;;;;;;;;;;;;;5050035;28;19925;-67
2023/01/20 05:13:09;;;;;;;;;;;;;;;;;;5056717;28;19931;-66
2023/01/20 05:15:35;;;;;;;;;;;;;;;;;;5036129;28;19928;-65
2023/01/20 05:18:01;;;;;;;;;;;;;;;;;;5038149;28;20531;-65
2023/01/20 05:20:27;;;;;;;;;;;;;;;;;;5029847;28;20516;-67
2023/01/20 05:22:53;;;;;;;;;;;;;;;;;;5023364;28;19927;-65
2023/01/20 05:25:19;;;;;;;;;;;;;;;;;;5043892;28;19924;-69
2023/01/20 05:27:45;;;;;;;;;;;;;;;;;;5021722;28;19925;-63
2023/01/20 05:30:10;;;;;;;;;;;;;;;;;;5049774;28;19939;-65
2023/01/20 05:32:36;;;;;;;;;;;;;;;;;;5050988;28;19928;-68
2023/01/20 05:35:02;;;;;;;;;;;;;;;;;;5052959;28;20003;-68
2023/01/20 05:37:28;;;;;;;;;;;;;;;;;;5032362;28;19929;-67
2023/01/20 05:39:54;;;;;;;;;;;;;;;;;;5038979;28;19924;-65
2023/01/20 05:42:20;;;;;;;;;;;;;;;;;;5036370;28;19925;-68
2023/01/20 05:44:46;;;;;;;;;;;;;;;;;;5037070;28;19930;-66
2023/01/20 05:47:11;;;;;;;;;;;;;;;;;;5035350;28;20296;-66
2023/01/20 05:49:37;;;;;;;;;;;;;;;;;;5034492;28;19929;-69
2023/01/20 05:52:03;;;;;;;;;;;;;;;;;;5056256;28;19924;-64
2023/01/20 05:54:29;;;;;;;;;;;;;;;;;;5048198;28;20399;-68
2023/01/20 05:56:55;;;;;;;;;;;;;;;;;;5023101;28;20490;-64
2023/01/20 05:59:21;;;;;;;;;;;;;;;;;;5037853;28;19999;-67
2023/01/20 06:01:47;;;;;;;;;;;;;;;;;;5016144;28;19970;-67
2023/01/20 06:04:12;;;;;;;;;;;;;;;;;;5037101;28;19928;-67
2023/01/20 06:06:38;;;;;;;;;;;;;;;;;;5027668;28;19959;-67
2023/01/20 06:09:05;;;;;;;;;;;;;;;;;;5015797;28;19931;-64
2023/01/20 06:11:31;;;;;;;;;;;;;;;;;;5014175;28;19960;-66
2023/01/20 06:13:57;;;;;;;;;;;;;;;;;;5041485;28;20019;-66
2023/01/20 06:16:23;;;;;;;;;;;;;;;;;;5027291;28;19928;-69
2023/01/20 06:18:48;;;;;;;;;;;;;;;;;;5035612;28;19973;-68
2023/01/20 06:21:14;;;;;;;;;;;;;;;;;;5008900;28;20051;-67
2023/01/20 06:23:40;;;;;;;;;;;;;;;;;;5039004;28;19994;-67
2023/01/20 06:26:06;;;;;;;;;;;;;;;;;;5036765;28;20515;-66
2023/01/20 06:28:32;;;;;;;;;;;;;;;;;;5054334;28;20011;-66
2023/01/20 06:36:24;;;;;;;;;;;;;;;;;;4911587;23;20116;-72
2023/01/20 06:55:06;;;;;;;;;;;;;;;;;;4999593;23;19940;-69
2023/01/20 06:57:32;;;;;;;;;;;;;;;;;;5006866;28;19953;-70
2023/01/20 06:59:58;;;;;;;;;;;;;;;;;;4987540;28;19933;-70
2023/01/20 07:02:24;;;;;;;;;;;;;;;;;;5006305;28;19924;-70
2023/01/20 07:04:50;;;;;;;;;;;;;;;;;;5023188;28;19925;-70
2023/01/20 07:07:15;;;;;;;;;;;;;;;;;;5010811;28;20308;-70
2023/01/20 07:09:41;;;;;;;;;;;;;;;;;;4994602;28;20315;-70
2023/01/20 07:12:07;;;;;;;;;;;;;;;;;;5020698;28;20003;-70
2023/01/20 07:14:33;;;;;;;;;;;;;;;;;;5028504;28;20000;-70
2023/01/20 07:16:59;;;;;;;;;;;;;;;;;;5018569;28;19925;-70
2023/01/20 07:19:25;;;;;;;;;;;;;;;;;;5022789;28;19931;-70
2023/01/20 07:21:51;;;;;;;;;;;;;;;;;;5019253;28;20391;-70
2023/01/20 07:24:16;;;;;;;;;;;;;;;;;;4985395;28;20014;-70
2023/01/20 07:26:42;;;;;;;;;;;;;;;;;;5000939;28;19925;-70
2023/01/20 07:29:08;;;;;;;;;;;;;;;;;;5012505;28;19917;-70
2023/01/20 07:31:34;;;;;;;;;;;;;;;;;;5011877;28;20372;-70
2023/01/20 07:34:00;;;;;;;;;;;;;;;;;;5025506;28;20312;-70
2023/01/20 07:36:26;;;;;;;;;;;;;;;;;;5025888;28;19923;-70
2023/01/20 07:38:52;;;;;;;;;;;;;;;;;;5024236;28;19932;-70
2023/01/20 07:41:18;;;;;;;;;;;;;;;;;;5022969;28;19924;-70
2023/01/20 07:43:44;;;;;;;;;;;;;;;;;;5030463;28;19925;-70
2023/01/20 07:46:10;;;;;;;;;;;;;;;;;;5038172;28;20381;-70
2023/01/20 07:48:36;;;;;;;;;;;;;;;;;;5035690;28;19932;-70
2023/01/20 07:51:03;;;;;;;;;;;;;;;;;;5018231;28;20357;-70
2023/01/20 07:53:29;;;;;;;;;;;;;;;;;;5037741;28;19928;-70
2023/01/20 07:55:55;;;;;;;;;;;;;;;;;;5058102;28;20027;-70
2023/01/20 07:58:21;;;;;;;;;;;;;;;;;;5051378;28;20358;-70
2023/01/20 08:00:47;;;;;;;;;;;;;;;;;;5052667;28;19924;-70
2023/01/20 08:03:14;;;;;;;;;;;;;;;;;;5056863;28;19924;-70
2023/01/20 08:05:40;;;;;;;;;;;;;;;;;;5057654;28;20373;-70
2023/01/20 08:08:05;;;;;;;;;;;;;;;;;;5047220;28;19978;-70
2023/01/20 08:10:31;;;;;;;;;;;;;;;;;;5053739;28;19960;-70
2023/01/20 08:12:57;;;;;;;;;;;;;;;;;;5036808;28;20464;-70
2023/01/20 08:15:23;;;;;;;;;;;;;;;;;;5044705;28;19929;-70
2023/01/20 08:17:49;;;;;;;;;;;;;;;;;;5053346;28;20307;-70
2023/01/20 08:20:15;;;;;;;;;;;;;;;;;;5047487;28;19923;-70
2023/01/20 08:22:41;;;;;;;;;;;;;;;;;;5047161;28;19927;-70
2023/01/20 08:25:06;;;;;;;;;;;;;;;;;;5051204;28;19989;-70
2023/01/20 08:27:32;;;;;;;;;;;;;;;;;;5054941;28;20411;-70
2023/01/20 08:29:58;;;;;;;;;;;;;;;;;;5042997;28;19928;-70
2023/01/20 08:32:24;;;;;;;;;;;;;;;;;;5053706;28;19925;-70
2023/01/20 08:34:50;;;;;;;;;;;;;;;;;;5048853;28;19929;-70
2023/01/20 08:37:16;;;;;;;;;;;;;;;;;;5053073;28;20561;-70
2023/01/20 08:39:42;;;;;;;;;;;;;;;;;;5053598;28;19932;-70
2023/01/20 08:42:08;;;;;;;;;;;;;;;;;;5053070;28;20300;-70
2023/01/20 08:44:33;;;;;;;;;;;;;;;;;;5051000;28;19928;-70
2023/01/20 08:47:01;;;;;;;;;;;;;;;;;;5060133;28;19968;-70
2023/01/20 08:49:28;;;;;;;;;;;;;;;;;;5057921;28;19924;-70
2023/01/20 08:51:55;;;;;;;;;;;;;;;;;;5023704;28;19978;-70
2023/01/20 08:54:21;;;;;;;;;;;;;;;;;;5033079;28;20396;-70
2023/01/20 08:56:47;;;;;;;;;;;;;;;;;;5052618;28;19931;-70
2023/01/20 08:59:13;;;;;;;;;;;;;;;;;;5059285;28;19921;-70
2023/01/20 09:01:40;;;;;;;;;;;;;;;;;;5046193;28;19924;-70
2023/01/20 09:04:06;;;;;;;;;;;;;;;;;;5058587;28;20403;-70
2023/01/20 09:06:32;;;;;;;;;;;;;;;;;;5058840;28;20015;-70
2023/01/20 09:08:58;;;;;;;;;;;;;;;;;;5056232;28;19968;-70
2023/01/20 09:11:25;;;;;;;;;;;;;;;;;;5053880;28;19916;-70
2023/01/20 09:13:50;;;;;;;;;;;;;;;;;;5060943;28;19916;-70
2023/01/20 09:16:16;;;;;;;;;;;;;;;;;;5049521;28;20034;-70
2023/01/20 09:18:43;;;;;;;;;;;;;;;;;;5058805;28;19923;-70
2023/01/20 09:21:09;;;;;;;;;;;;;;;;;;5040381;28;20018;-70
2023/01/20 09:23:35;;;;;;;;;;;;;;;;;;5047733;28;20381;-70
2023/01/20 09:26:00;;;;;;;;;;;;;;;;;;5055270;28;19922;-70
2023/01/20 09:28:26;;;;;;;;;;;;;;;;;;5054696;28;20392;-70
2023/01/20 09:30:52;;;;;;;;;;;;;;;;;;5058990;28;20042;-70
2023/01/20 09:33:18;;;;;;;;;;;;;;;;;;5052503;28;19920;-70
2023/01/20 09:35:44;;;;;;;;;;;;;;;;;;5059393;28;19924;-70
2023/01/20 09:43:55;;;;;;;;;;;;;;;;;;5059923;28;19958;-70
2023/01/20 09:46:21;;;;;;;;;;;;;;;;;;5062757;28;19924;-70
2023/01/20 09:54:16;;;;;;;;;;;;;;;;;;5061127;28;20474;-70
2023/01/20 09:56:42;;;;;;;;;;;;;;;;;;5050383;28;19999;-71
2023/01/20 09:59:08;;;;;;;;;;;;;;;;;;5056898;28;20066;-70
2023/01/20 10:01:34;;;;;;;;;;;;;;;;;;5058768;28;19924;-70
2023/01/20 10:03:59;;;;;;;;;;;;;;;;;;5045630;28;20369;-70
2023/01/20 10:06:25;;;;;;;;;;;;;;;;;;5039975;28;20037;-70
2023/01/20 10:08:51;;;;;;;;;;;;;;;;;;5047048;28;19924;-70
2023/01/20 10:11:17;;;;;;;;;;;;;;;;;;5025306;28;19967;-71
2023/01/20 10:13:46;;;;;;;;;;;;;;;;;;5043127;28;19978;-70
2023/01/20 10:16:11;;;;;;;;;;;;;;;;;;5005480;28;19929;-70
2023/01/20 10:18:37;;;;;;;;;;;;;;;;;;5038405;28;20332;-70
2023/01/20 10:21:03;;;;;;;;;;;;;;;;;;5032926;28;19920;-70
2023/01/20 10:23:29;;;;;;;;;;;;;;;;;;5039177;28;20022;-70
2023/01/20 10:25:55;;;;;;;;;;;;;;;;;;5026772;28;19924;-70
2023/01/20 10:28:21;;;;;;;;;;;;;;;;;;5037567;28;19966;-70
2023/01/20 10:30:47;;;;;;;;;;;;;;;;;;5032524;28;19929;-70
2023/01/20 10:33:13;;;;;;;;;;;;;;;;;;5038160;28;19931;-70
2023/01/20 10:35:38;;;;;;;;;;;;;;;;;;5042476;28;19933;-70
2023/01/20 10:38:04;;;;;;;;;;;;;;;;;;5043121;28;20350;-71
2023/01/20 10:40:30;;;;;;;;;;;;;;;;;;5044770;28;19916;-70
2023/01/20 10:42:56;;;;;;;;;;;;;;;;;;5041496;28;20463;-70
2023/01/20 10:45:22;;;;;;;;;;;;;;;;;;5043253;28;20030;-70
2023/01/20 10:47:48;;;;;;;;;;;;;;;;;;5027230;28;20023;-71
2023/01/20 10:50:14;;;;;;;;;;;;;;;;;;5018842;28;19944;-70
2023/01/20 10:52:39;;;;;;;;;;;;;;;;;;5033018;28;19928;-71
2023/01/20 10:55:05;;;;;;;;;;;;;;;;;;5051857;28;20015;-71
2023/01/20 10:57:31;;;;;;;;;;;;;;;;;;5035436;28;19925;-70
2023/01/20 10:59:57;;;;;;;;;;;;;;;;;;5035141;28;19931;-70
2023/01/20 11:02:23;;;;;;;;;;;;;;;;;;5030285;28;19923;-70
2023/01/20 11:04:49;;;;;;;;;;;;;;;;;;5052219;28;20277;-70
2023/01/20 11:07:15;;;;;;;;;;;;;;;;;;5007964;28;19972;-68
2023/01/20 11:09:41;;;;;;;;;;;;;;;;;;5017376;28;20532;-69
2023/01/20 11:12:07;;;;;;;;;;;;;;;;;;5029629;28;19925;-69
2023/01/20 11:14:33;;;;;;;;;;;;;;;;;;5034237;28;20533;-69
2023/01/20 11:16:59;;;;;;;;;;;;;;;;;;5027162;28;19925;-70
2023/01/20 11:19:25;;;;;;;;;;;;;;;;;;5044024;28;20292;-69
2023/01/20 11:21:51;;;;;;;;;;;;;;;;;;5043888;28;19928;-69
2023/01/20 11:24:17;;;;;;;;;;;;;;;;;;5033500;28;20387;-70
2023/01/20 11:26:43;;;;;;;;;;;;;;;;;;4999479;28;20317;-69
2023/01/20 11:29:08;;;;;;;;;;;;;;;;;;5018639;28;19925;-70
2023/01/20 11:31:34;;;;;;;;;;;;;;;;;;5002423;28;19922;-66
2023/01/20 11:34:00;;;;;;;;;;;;;;;;;;5010204;28;19971;-67
2023/01/20 11:36:26;;;;;;;;;;;;;;;;;;5016111;28;20314;-68
2023/01/20 11:38:52;;;;;;;;;;;;;;;;;;5023518;28;20081;-68
2023/01/20 11:41:19;;;;;;;;;;;;;;;;;;5041249;28;20409;-68
2023/01/20 11:43:45;;;;;;;;;;;;;;;;;;5030140;28;20056;-69
2023/01/20 11:46:10;;;;;;;;;;;;;;;;;;5031877;28;19925;-69
2023/01/20 11:48:36;;;;;;;;;;;;;;;;;;5027499;28;20350;-69
2023/01/20 11:51:02;;;;;;;;;;;;;;;;;;5019146;28;19959;-69
2023/01/20 11:53:30;;;;;;;;;;;;;;;;;;5037625;28;20035;-69
2023/01/20 11:55:56;;;;;;;;;;;;;;;;;;5036840;28;20466;-69
2023/01/20 11:58:22;;;;;;;;;;;;;;;;;;5027727;28;19928;-68
2023/01/20 12:00:47;;;;;;;;;;;;;;;;;;5038395;28;20483;-69
2023/01/20 12:03:13;;;;;;;;;;;;;;;;;;5007906;28;19932;-70
2023/01/20 12:05:39;;;;;;;;;;;;;;;;;;5025384;28;19978;-69
2023/01/20 12:08:05;;;;;;;;;;;;;;;;;;5027082;28;19920;-69
2023/01/20 12:10:31;;;;;;;;;;;;;;;;;;5033535;28;19926;-70
2023/01/20 12:12:57;;;;;;;;;;;;;;;;;;5027622;28;20340;-70
2023/01/20 12:15:23;;;;;;;;;;;;;;;;;;5012051;28;19929;-69
2023/01/20 12:17:48;;;;;;;;;;;;;;;;;;5026920;28;20023;-69
2023/01/20 12:20:14;;;;;;;;;;;;;;;;;;5023878;28;20313;-69
2023/01/20 12:22:40;;;;;;;;;;;;;;;;;;5030117;28;19960;-69
2023/01/20 12:25:06;;;;;;;;;;;;;;;;;;5000629;28;19925;-69
2023/01/20 12:27:32;;;;;;;;;;;;;;;;;;5015668;28;19933;-69
2023/01/20 12:29:58;;;;;;;;;;;;;;;;;;5023151;28;20014;-69
2023/01/20 12:32:24;;;;;;;;;;;;;;;;;;5000020;28;19924;-69
2023/01/20 12:34:50;;;;;;;;;;;;;;;;;;5007048;28;20158;-69
2023/01/20 12:37:16;;;;;;;;;;;;;;;;;;4997779;28;20366;-68
2023/01/20 12:39:42;;;;;;;;;;;;;;;;;;5005170;28;19969;-69
2023/01/20 12:42:07;;;;;;;;;;;;;;;;;;5021718;28;20827;-69
2023/01/20 12:44:33;;;;;;;;;;;;;;;;;;5010426;28;19925;-69
2023/01/20 12:46:59;;;;;;;;;;;;;;;;;;4997017;28;19925;-68
2023/01/20 12:49:25;;;;;;;;;;;;;;;;;;5022827;28;20318;-68
2023/01/20 12:51:51;;;;;;;;;;;;;;;;;;5020643;28;21037;-69
2023/01/20 12:54:17;;;;;;;;;;;;;;;;;;5009671;28;19925;-69
2023/01/20 12:56:43;;;;;;;;;;;;;;;;;;5005624;28;19929;-70
2023/01/20 12:59:08;;;;;;;;;;;;;;;;;;5041717;28;20460;-69
2023/01/20 13:01:34;;;;;;;;;;;;;;;;;;5005568;28;19921;-69
2023/01/20 13:04:00;;;;;;;;;;;;;;;;;;5038126;28;20307;-69
2023/01/20 13:06:26;;;;;;;;;;;;;;;;;;5001275;28;20532;-69
2023/01/20 13:08:52;;;;;;;;;;;;;;;;;;4963355;28;20311;-69
2023/01/20 13:11:18;;;;;;;;;;;;;;;;;;5016298;28;19944;-69
2023/01/20 13:13:44;;;;;;;;;;;;;;;;;;5024958;28;19917;-69
2023/01/20 13:16:10;;;;;;;;;;;;;;;;;;5002240;28;19928;-69
2023/01/20 13:18:36;;;;;;;;;;;;;;;;;;5020649;28;19965;-69
2023/01/20 13:21:02;;;;;;;;;;;;;;;;;;4983189;28;19925;-69
2023/01/20 13:23:28;;;;;;;;;;;;;;;;;;5005316;28;20605;-65
2023/01/20 13:25:54;;;;;;;;;;;;;;;;;;5018153;28;19928;-69
2023/01/20 13:28:20;;;;;;;;;;;;;;;;;;4990043;28;20109;-66
2023/01/20 13:30:50;;;;;;;;;;;;;;;;;;4991347;28;19925;-68
2023/01/20 13:33:16;;;;;;;;;;;;;;;;;;4987233;28;19960;-68
2023/01/20 13:35:41;;;;;;;;;;;;;;;;;;5002608;28;20032;-69
2023/01/20 13:38:07;;;;;;;;;;;;;;;;;;4983618;28;20021;-68
2023/01/20 13:40:33;;;;;;;;;;;;;;;;;;5025781;28;19945;-69
2023/01/20 13:42:59;;;;;;;;;;;;;;;;;;5021627;28;19933;-70
2023/01/20 13:45:26;;;;;;;;;;;;;;;;;;5002165;28;20008;-70
2023/01/20 13:47:52;;;;;;;;;;;;;;;;;;5020061;28;20395;-68
2023/01/20 13:50:18;;;;;;;;;;;;;;;;;;4996301;28;19928;-69
2023/01/20 13:52:43;;;;;;;;;;;;;;;;;;5033984;28;19920;-69
2023/01/20 13:55:09;;;;;;;;;;;;;;;;;;5042634;28;19981;-68
2023/01/20 13:57:35;;;;;;;;;;;;;;;;;;5022240;28;19938;-70
2023/01/20 14:00:01;;;;;;;;;;;;;;;;;;4990956;28;19920;-68
2023/01/20 14:02:27;;;;;;;;;;;;;;;;;;4984317;28;20000;-69
2023/01/20 14:04:53;;;;;;;;;;;;;;;;;;5007346;28;20027;-69
2023/01/20 14:07:19;;;;;;;;;;;;;;;;;;4995320;28;19925;-69
2023/01/20 14:09:45;;;;;;;;;;;;;;;;;;4999111;28;19925;-69
2023/01/20 14:12:10;;;;;;;;;;;;;;;;;;5015142;28;20406;-69
2023/01/20 14:14:36;;;;;;;;;;;;;;;;;;4982045;28;20995;-69
2023/01/20 14:17:02;;;;;;;;;;;;;;;;;;4987393;28;19928;-68
2023/01/20 14:19:29;;;;;;;;;;;;;;;;;;4993357;28;19925;-69
2023/01/20 14:21:55;;;;;;;;;;;;;;;;;;4994992;28;19917;-69
2023/01/20 14:24:21;;;;;;;;;;;;;;;;;;4996554;28;19932;-68
2023/01/20 14:26:47;;;;;;;;;;;;;;;;;;5023667;28;20599;-68
2023/01/20 14:29:13;;;;;;;;;;;;;;;;;;5000855;28;19925;-68
2023/01/20 14:31:40;;;;;;;;;;;;;;;;;;5001444;28;19921;-68
2023/01/20 14:34:06;;;;;;;;;;;;;;;;;;4991136;28;19932;-68
2023/01/20 14:36:32;;;;;;;;;;;;;;;;;;5010458;28;19928;-68
2023/01/20 14:38:57;;;;;;;;;;;;;;;;;;5000811;28;19917;-68
2023/01/20 14:41:23;;;;;;;;;;;;;;;;;;5025608;28;20406;-68
2023/01/20 14:43:49;;;;;;;;;;;;;;;;;;4995964;28;19925;-68
2023/01/20 14:46:15;;;;;;;;;;;;;;;;;;5037246;28;19920;-68
2023/01/20 14:48:41;;;;;;;;;;;;;;;;;;5023857;28;20586;-68
2023/01/20 14:51:07;;;;;;;;;;;;;;;;;;5020169;28;19925;-68
2023/01/20 14:53:33;;;;;;;;;;;;;;;;;;5027994;28;19932;-68
2023/01/20 14:55:59;;;;;;;;;;;;;;;;;;5027438;28;20775;-68
2023/01/20 14:58:25;;;;;;;;;;;;;;;;;;5023173;28;20427;-68
2023/01/20 15:00:50;;;;;;;;;;;;;;;;;;5017336;28;20357;-68
2023/01/20 15:03:16;;;;;;;;;;;;;;;;;;5039930;28;20838;-68
2023/01/20 15:05:43;;;;;;;;;;;;;;;;;;5012751;28;19924;-68
2023/01/20 15:08:08;;;;;;;;;;;;;;;;;;5016480;28;20307;-68
2023/01/20 15:10:34;;;;;;;;;;;;;;;;;;5009923;28;19927;-68
2023/01/20 15:13:00;;;;;;;;;;;;;;;;;;4989504;28;19939;-68
2023/01/20 15:15:26;;;;;;;;;;;;;;;;;;4983861;28;19928;-67
2023/01/20 15:17:52;;;;;;;;;;;;;;;;;;5025330;28;19924;-68
2023/01/20 15:20:18;;;;;;;;;;;;;;;;;;5007063;28;20641;-68
2023/01/20 15:22:44;;;;;;;;;;;;;;;;;;5026609;28;19925;-68
2023/01/20 15:25:10;;;;;;;;;;;;;;;;;;5017206;28;19936;-68
2023/01/20 15:27:36;;;;;;;;;;;;;;;;;;5027903;28;19942;-68
2023/01/20 15:30:02;;;;;;;;;;;;;;;;;;5011263;28;19924;-68
2023/01/20 15:32:28;;;;;;;;;;;;;;;;;;5021680;28;20015;-68
2023/01/20 15:34:54;;;;;;;;;;;;;;;;;;5038012;28;19955;-69
2023/01/20 15:37:20;;;;;;;;;;;;;;;;;;5006932;28;20017;-68
2023/01/20 15:39:46;;;;;;;;;;;;;;;;;;4956897;28;20003;-68
2023/01/20 15:42:14;;;;;;;;;;;;;;;;;;5024352;28;20682;-69
2023/01/20 15:44:40;;;;;;;;;;;;;;;;;;5031437;28;20323;-69
2023/01/20 15:47:06;;;;;;;;;;;;;;;;;;5013747;28;20753;-69
2023/01/20 15:49:31;;;;;;;;;;;;;;;;;;5006437;28;20295;-69
2023/01/20 15:51:57;;;;;;;;;;;;;;;;;;4997430;28;19971;-69
2023/01/20 15:54:23;;;;;;;;;;;;;;;;;;5026362;28;19979;-69
2023/01/20 15:56:49;;;;;;;;;;;;;;;;;;5028237;28;19916;-68
2023/01/20 15:59:15;;;;;;;;;;;;;;;;;;5010803;28;20365;-68
2023/01/20 16:01:41;;;;;;;;;;;;;;;;;;5012606;28;20704;-68
2023/01/20 16:04:07;;;;;;;;;;;;;;;;;;5014617;28;19916;-68
2023/01/20 16:06:32;;;;;;;;;;;;;;;;;;5012470;28;19924;-70
2023/01/20 16:08:58;;;;;;;;;;;;;;;;;;5016654;28;19964;-70
2023/01/20 16:11:24;;;;;;;;;;;;;;;;;;4993508;28;19928;-70
2023/01/20 16:13:50;;;;;;;;;;;;;;;;;;5002466;28;19917;-70
2023/01/20 16:16:16;;;;;;;;;;;;;;;;;;4986764;28;20403;-70
2023/01/20 16:18:42;;;;;;;;;;;;;;;;;;4993547;28;20495;-70
2023/01/20 16:21:08;;;;;;;;;;;;;;;;;;5024831;28;19991;-70
2023/01/20 16:23:34;;;;;;;;;;;;;;;;;;5008929;28;19921;-70
2023/01/20 16:26:00;;;;;;;;;;;;;;;;;;4988045;28;20323;-69
2023/01/20 16:28:26;;;;;;;;;;;;;;;;;;5004994;28;19970;-69
2023/01/20 16:30:52;;;;;;;;;;;;;;;;;;5023360;28;20765;-69
2023/01/20 16:33:18;;;;;;;;;;;;;;;;;;4988481;28;19916;-69
2023/01/20 16:35:44;;;;;;;;;;;;;;;;;;4994119;28;20353;-69
2023/01/20 16:38:10;;;;;;;;;;;;;;;;;;4982326;28;20024;-69
2023/01/20 16:40:36;;;;;;;;;;;;;;;;;;4982781;28;19921;-69
2023/01/20 16:43:02;;;;;;;;;;;;;;;;;;4990013;28;19928;-69
2023/01/20 16:45:28;;;;;;;;;;;;;;;;;;5009256;28;19925;-69
2023/01/20 16:47:54;;;;;;;;;;;;;;;;;;5019102;28;19917;-69
2023/01/20 16:50:19;;;;;;;;;;;;;;;;;;4986206;28;19932;-71
2023/01/20 16:52:45;;;;;;;;;;;;;;;;;;5009436;28;20386;-70
2023/01/20 16:55:11;;;;;;;;;;;;;;;;;;4984353;28;19953;-70
2023/01/20 16:57:37;;;;;;;;;;;;;;;;;;5007965;28;20020;-70
2023/01/20 17:00:03;;;;;;;;;;;;;;;;;;4998212;28;20019;-70
2023/01/20 17:02:29;;;;;;;;;;;;;;;;;;5017713;28;20434;-70
2023/01/20 17:04:55;;;;;;;;;;;;;;;;;;4973405;28;19947;-70
2023/01/20 17:07:21;;;;;;;;;;;;;;;;;;5017477;28;19967;-70
2023/01/20 17:09:47;;;;;;;;;;;;;;;;;;5023326;28;19927;-69